sensor_id;sensor_type;location;lat;lon;timestamp;P1;durP1;ratioP1;P2;durP2;ratioP2
26756;SDS011;23848;49.798;10.228;2024-01-06T00:02:19;12.15;;;6.07;;
26756;SDS011;23848;49.798;10.228;2024-01-06T00:07:44;10.20;;;5.40;;
26756;SDS011;23848;49.798;10.228;2024-01-06T00:10:36;9.48;;;4.82;;
26756;SDS011;23848;49.798;10.228;2024-01-06T00:13:25;9.48;;;4.05;;
26756;SDS011;23848;49.798;10.228;2024-01-06T00:16:02;9.45;;;4.47;;
26756;SDS011;23848;49.798;10.228;2024-01-06T00:19:02;7.75;;;3.75;;
26756;SDS011;23848;49.798;10.228;2024-01-06T00:21:41;8.93;;;4.50;;
26756;SDS011;23848;49.798;10.228;2024-01-06T00:24:29;6.78;;;4.28;;
26756;SDS011;23848;49.798;10.228;2024-01-06T00:27:15;8.20;;;4.05;;
26756;SDS011;23848;49.798;10.228;2024-01-06T00:29:55;7.25;;;4.25;;
26756;SDS011;23848;49.798;10.228;2024-01-06T00:32:42;6.65;;;3.80;;
26756;SDS011;23848;49.798;10.228;2024-01-06T00:35:30;7.72;;;3.92;;
26756;SDS011;23848;49.798;10.228;2024-01-06T00:38:06;7.07;;;3.85;;
26756;SDS011;23848;49.798;10.228;2024-01-06T00:48:03;5.50;;;3.55;;
26756;SDS011;23848;49.798;10.228;2024-01-06T00:51:01;5.22;;;3.47;;
26756;SDS011;23848;49.798;10.228;2024-01-06T00:53:42;5.30;;;3.17;;
26756;SDS011;23848;49.798;10.228;2024-01-06T00:59:44;5.65;;;3.50;;
26756;SDS011;23848;49.798;10.228;2024-01-06T01:02:28;5.97;;;3.80;;
26756;SDS011;23848;49.798;10.228;2024-01-06T01:05:19;7.22;;;4.05;;
26756;SDS011;23848;49.798;10.228;2024-01-06T01:08:12;7.15;;;3.55;;
26756;SDS011;23848;49.798;10.228;2024-01-06T01:11:09;8.35;;;4.30;;
26756;SDS011;23848;49.798;10.228;2024-01-06T01:14:10;8.07;;;4.97;;
26756;SDS011;23848;49.798;10.228;2024-01-06T01:17:19;7.95;;;4.70;;
26756;SDS011;23848;49.798;10.228;2024-01-06T01:23:36;10.25;;;5.22;;
26756;SDS011;23848;49.798;10.228;2024-01-06T01:26:37;9.85;;;4.32;;
26756;SDS011;23848;49.798;10.228;2024-01-06T01:29:29;8.20;;;4.88;;
26756;SDS011;23848;49.798;10.228;2024-01-06T01:35:42;6.55;;;3.88;;
26756;SDS011;23848;49.798;10.228;2024-01-06T01:41:57;7.38;;;4.25;;
26756;SDS011;23848;49.798;10.228;2024-01-06T01:44:51;8.38;;;4.75;;
26756;SDS011;23848;49.798;10.228;2024-01-06T01:50:54;8.23;;;4.82;;
26756;SDS011;23848;49.798;10.228;2024-01-06T01:53:53;9.00;;;4.45;;
26756;SDS011;23848;49.798;10.228;2024-01-06T01:57:00;8.43;;;4.65;;
26756;SDS011;23848;49.798;10.228;2024-01-06T01:59:43;6.38;;;3.47;;
26756;SDS011;23848;49.798;10.228;2024-01-06T02:05:58;7.15;;;4.60;;
26756;SDS011;23848;49.798;10.228;2024-01-06T02:09:15;7.07;;;4.20;;
26756;SDS011;23848;49.798;10.228;2024-01-06T02:12:27;7.22;;;4.00;;
26756;SDS011;23848;49.798;10.228;2024-01-06T02:15:29;5.93;;;3.78;;
26756;SDS011;23848;49.798;10.228;2024-01-06T02:18:35;7.88;;;4.63;;
26756;SDS011;23848;49.798;10.228;2024-01-06T02:21:11;8.52;;;4.63;;
26756;SDS011;23848;49.798;10.228;2024-01-06T02:30:29;8.93;;;4.88;;
26756;SDS011;23848;49.798;10.228;2024-01-06T02:33:18;10.23;;;5.78;;
26756;SDS011;23848;49.798;10.228;2024-01-06T02:36:03;9.00;;;6.05;;
26756;SDS011;23848;49.798;10.228;2024-01-06T02:39:23;8.52;;;5.32;;
26756;SDS011;23848;49.798;10.228;2024-01-06T02:48:57;7.72;;;4.18;;
26756;SDS011;23848;49.798;10.228;2024-01-06T02:51:42;8.20;;;4.45;;
26756;SDS011;23848;49.798;10.228;2024-01-06T02:57:31;6.55;;;3.97;;
26756;SDS011;23848;49.798;10.228;2024-01-06T03:01:03;7.47;;;4.40;;
26756;SDS011;23848;49.798;10.228;2024-01-06T03:04:00;8.48;;;4.97;;
26756;SDS011;23848;49.798;10.228;2024-01-06T03:06:41;6.10;;;3.97;;
26756;SDS011;23848;49.798;10.228;2024-01-06T03:09:22;6.03;;;3.78;;
26756;SDS011;23848;49.798;10.228;2024-01-06T03:15:11;7.32;;;4.10;;
26756;SDS011;23848;49.798;10.228;2024-01-06T03:17:54;5.50;;;3.78;;
26756;SDS011;23848;49.798;10.228;2024-01-06T03:20:49;6.35;;;3.75;;
26756;SDS011;23848;49.798;10.228;2024-01-06T03:23:35;6.50;;;3.70;;
26756;SDS011;23848;49.798;10.228;2024-01-06T03:26:27;7.13;;;4.10;;
26756;SDS011;23848;49.798;10.228;2024-01-06T03:29:29;6.43;;;4.03;;
26756;SDS011;23848;49.798;10.228;2024-01-06T03:32:17;7.78;;;4.20;;
26756;SDS011;23848;49.798;10.228;2024-01-06T03:35:10;5.85;;;3.33;;
26756;SDS011;23848;49.798;10.228;2024-01-06T03:38:11;5.13;;;3.15;;
26756;SDS011;23848;49.798;10.228;2024-01-06T03:41:10;6.60;;;4.32;;
26756;SDS011;23848;49.798;10.228;2024-01-06T03:46:51;5.82;;;4.00;;
26756;SDS011;23848;49.798;10.228;2024-01-06T03:49:32;5.37;;;3.73;;
26756;SDS011;23848;49.798;10.228;2024-01-06T03:52:23;8.10;;;4.28;;
26756;SDS011;23848;49.798;10.228;2024-01-06T03:55:33;6.80;;;4.20;;
26756;SDS011;23848;49.798;10.228;2024-01-06T03:58:39;7.45;;;3.83;;
26756;SDS011;23848;49.798;10.228;2024-01-06T04:01:30;8.35;;;4.57;;
26756;SDS011;23848;49.798;10.228;2024-01-06T04:04:23;7.20;;;4.30;;
26756;SDS011;23848;49.798;10.228;2024-01-06T04:07:20;7.13;;;4.28;;
26756;SDS011;23848;49.798;10.228;2024-01-06T04:10:10;7.30;;;3.65;;
26756;SDS011;23848;49.798;10.228;2024-01-06T04:13:08;7.68;;;4.07;;
26756;SDS011;23848;49.798;10.228;2024-01-06T04:15:58;7.50;;;4.43;;
26756;SDS011;23848;49.798;10.228;2024-01-06T04:19:24;7.43;;;4.10;;
26756;SDS011;23848;49.798;10.228;2024-01-06T04:21:57;10.30;;;4.82;;
26756;SDS011;23848;49.798;10.228;2024-01-06T04:24:46;6.72;;;3.78;;
26756;SDS011;23848;49.798;10.228;2024-01-06T04:27:26;6.32;;;4.32;;
26756;SDS011;23848;49.798;10.228;2024-01-06T04:33:18;7.50;;;4.33;;
26756;SDS011;23848;49.798;10.228;2024-01-06T04:36:05;8.98;;;4.22;;
26756;SDS011;23848;49.798;10.228;2024-01-06T04:39:10;7.72;;;4.25;;
26756;SDS011;23848;49.798;10.228;2024-01-06T04:42:11;9.25;;;4.32;;
26756;SDS011;23848;49.798;10.228;2024-01-06T04:48:24;7.25;;;4.13;;
26756;SDS011;23848;49.798;10.228;2024-01-06T04:51:06;6.63;;;4.05;;
26756;SDS011;23848;49.798;10.228;2024-01-06T04:54:00;7.43;;;4.28;;
26756;SDS011;23848;49.798;10.228;2024-01-06T04:56:58;5.68;;;4.00;;
26756;SDS011;23848;49.798;10.228;2024-01-06T04:59:47;6.97;;;4.80;;
26756;SDS011;23848;49.798;10.228;2024-01-06T05:02:30;5.55;;;3.70;;
26756;SDS011;23848;49.798;10.228;2024-01-06T05:05:18;7.63;;;3.70;;
26756;SDS011;23848;49.798;10.228;2024-01-06T05:08:06;6.63;;;4.38;;
26756;SDS011;23848;49.798;10.228;2024-01-06T05:11:16;9.85;;;5.95;;
26756;SDS011;23848;49.798;10.228;2024-01-06T05:14:06;8.73;;;4.88;;
26756;SDS011;23848;49.798;10.228;2024-01-06T05:16:57;8.65;;;5.18;;
26756;SDS011;23848;49.798;10.228;2024-01-06T05:20:02;8.38;;;5.20;;
26756;SDS011;23848;49.798;10.228;2024-01-06T05:22:57;6.40;;;3.63;;
26756;SDS011;23848;49.798;10.228;2024-01-06T05:28:57;6.45;;;3.88;;
26756;SDS011;23848;49.798;10.228;2024-01-06T05:34:32;6.20;;;3.65;;
26756;SDS011;23848;49.798;10.228;2024-01-06T05:37:47;5.53;;;3.25;;
26756;SDS011;23848;49.798;10.228;2024-01-06T05:46:48;7.43;;;3.22;;
26756;SDS011;23848;49.798;10.228;2024-01-06T05:49:44;7.57;;;4.28;;
26756;SDS011;23848;49.798;10.228;2024-01-06T05:52:41;7.80;;;3.83;;
26756;SDS011;23848;49.798;10.228;2024-01-06T05:59:10;6.35;;;3.30;;
26756;SDS011;23848;49.798;10.228;2024-01-06T06:02:09;4.63;;;3.38;;
26756;SDS011;23848;49.798;10.228;2024-01-06T06:05:20;7.47;;;3.80;;
26756;SDS011;23848;49.798;10.228;2024-01-06T06:08:01;7.32;;;3.70;;
26756;SDS011;23848;49.798;10.228;2024-01-06T06:11:14;6.38;;;3.20;;
26756;SDS011;23848;49.798;10.228;2024-01-06T06:13:57;5.68;;;3.53;;
26756;SDS011;23848;49.798;10.228;2024-01-06T06:16:49;6.43;;;3.53;;
26756;SDS011;23848;49.798;10.228;2024-01-06T06:19:51;7.40;;;3.80;;
26756;SDS011;23848;49.798;10.228;2024-01-06T06:22:58;8.60;;;4.50;;
26756;SDS011;23848;49.798;10.228;2024-01-06T06:25:53;8.07;;;4.72;;
26756;SDS011;23848;49.798;10.228;2024-01-06T06:28:35;11.02;;;5.75;;
26756;SDS011;23848;49.798;10.228;2024-01-06T06:31:31;9.93;;;5.50;;
26756;SDS011;23848;49.798;10.228;2024-01-06T06:34:31;8.38;;;4.18;;
26756;SDS011;23848;49.798;10.228;2024-01-06T06:37:12;8.75;;;4.10;;
26756;SDS011;23848;49.798;10.228;2024-01-06T06:40:17;6.95;;;4.07;;
26756;SDS011;23848;49.798;10.228;2024-01-06T06:42:57;3.58;;;1.90;;
26756;SDS011;23848;49.798;10.228;2024-01-06T06:46:03;4.93;;;2.50;;
26756;SDS011;23848;49.798;10.228;2024-01-06T06:48:42;3.60;;;2.03;;
26756;SDS011;23848;49.798;10.228;2024-01-06T06:51:42;4.53;;;2.63;;
26756;SDS011;23848;49.798;10.228;2024-01-06T06:54:37;7.18;;;3.50;;
26756;SDS011;23848;49.798;10.228;2024-01-06T06:58:01;5.97;;;3.45;;
26756;SDS011;23848;49.798;10.228;2024-01-06T07:01:50;9.07;;;4.93;;
26756;SDS011;23848;49.798;10.228;2024-01-06T07:24:49;11.57;;;8.23;;
26756;SDS011;23848;49.798;10.228;2024-01-06T07:31:53;9.13;;;7.00;;
26756;SDS011;23848;49.798;10.228;2024-01-06T08:06:30;19.70;;;10.57;;
26756;SDS011;23848;49.798;10.228;2024-01-06T08:08:59;12.43;;;8.73;;
26756;SDS011;23848;49.798;10.228;2024-01-06T08:11:27;9.65;;;6.00;;
26756;SDS011;23848;49.798;10.228;2024-01-06T08:13:56;10.52;;;7.50;;
26756;SDS011;23848;49.798;10.228;2024-01-06T08:16:25;19.52;;;13.93;;
26756;SDS011;23848;49.798;10.228;2024-01-06T08:18:53;29.17;;;18.83;;
26756;SDS011;23848;49.798;10.228;2024-01-06T08:21:34;29.10;;;18.08;;
26756;SDS011;23848;49.798;10.228;2024-01-06T08:24:04;18.60;;;13.77;;
26756;SDS011;23848;49.798;10.228;2024-01-06T08:26:39;22.98;;;14.40;;
26756;SDS011;23848;49.798;10.228;2024-01-06T08:29:18;17.13;;;11.30;;
26756;SDS011;23848;49.798;10.228;2024-01-06T08:32:15;15.65;;;9.95;;
26756;SDS011;23848;49.798;10.228;2024-01-06T08:34:50;14.80;;;8.32;;
26756;SDS011;23848;49.798;10.228;2024-01-06T08:40:07;14.82;;;7.43;;
26756;SDS011;23848;49.798;10.228;2024-01-06T08:45:22;13.63;;;7.95;;
26756;SDS011;23848;49.798;10.228;2024-01-06T08:48:06;11.38;;;7.50;;
26756;SDS011;23848;49.798;10.228;2024-01-06T09:01:46;12.75;;;8.02;;
26756;SDS011;23848;49.798;10.228;2024-01-06T09:50:15;9.15;;;5.10;;
26756;SDS011;23848;49.798;10.228;2024-01-06T09:52:48;7.53;;;4.55;;
26756;SDS011;23848;49.798;10.228;2024-01-06T09:55:22;8.98;;;4.43;;
26756;SDS011;23848;49.798;10.228;2024-01-06T09:57:54;8.02;;;4.85;;
26756;SDS011;23848;49.798;10.228;2024-01-06T10:00:23;7.75;;;4.57;;
26756;SDS011;23848;49.798;10.228;2024-01-06T10:02:54;8.05;;;5.00;;
26756;SDS011;23848;49.798;10.228;2024-01-06T10:05:28;6.60;;;4.35;;
26756;SDS011;23848;49.798;10.228;2024-01-06T10:07:59;8.27;;;4.93;;
26756;SDS011;23848;49.798;10.228;2024-01-06T10:13:22;7.57;;;4.57;;
26756;SDS011;23848;49.798;10.228;2024-01-06T10:15:54;7.30;;;4.82;;
26756;SDS011;23848;49.798;10.228;2024-01-06T10:18:24;9.45;;;4.95;;
26756;SDS011;23848;49.798;10.228;2024-01-06T10:21:10;8.32;;;5.10;;
26756;SDS011;23848;49.798;10.228;2024-01-06T10:23:42;9.00;;;5.45;;
26756;SDS011;23848;49.798;10.228;2024-01-06T10:26:14;8.13;;;5.10;;
26756;SDS011;23848;49.798;10.228;2024-01-06T10:28:44;9.23;;;5.30;;
26756;SDS011;23848;49.798;10.228;2024-01-06T10:31:17;8.38;;;5.15;;
26756;SDS011;23848;49.798;10.228;2024-01-06T10:33:56;8.05;;;5.20;;
26756;SDS011;23848;49.798;10.228;2024-01-06T10:36:30;7.85;;;4.68;;
26756;SDS011;23848;49.798;10.228;2024-01-06T10:39:06;7.80;;;4.65;;
26756;SDS011;23848;49.798;10.228;2024-01-06T10:41:36;8.05;;;4.65;;
26756;SDS011;23848;49.798;10.228;2024-01-06T10:44:17;8.80;;;5.20;;
26756;SDS011;23848;49.798;10.228;2024-01-06T10:46:54;7.30;;;5.00;;
26756;SDS011;23848;49.798;10.228;2024-01-06T10:49:45;8.77;;;5.65;;
26756;SDS011;23848;49.798;10.228;2024-01-06T10:52:27;9.77;;;5.90;;
26756;SDS011;23848;49.798;10.228;2024-01-06T10:54:59;10.55;;;5.85;;
26756;SDS011;23848;49.798;10.228;2024-01-06T10:57:38;7.85;;;4.60;;
26756;SDS011;23848;49.798;10.228;2024-01-06T11:00:22;8.05;;;4.55;;
26756;SDS011;23848;49.798;10.228;2024-01-06T11:03:12;7.65;;;4.47;;
26756;SDS011;23848;49.798;10.228;2024-01-06T11:05:49;10.73;;;5.32;;
26756;SDS011;23848;49.798;10.228;2024-01-06T11:08:51;8.13;;;4.95;;
26756;SDS011;23848;49.798;10.228;2024-01-06T11:11:21;8.10;;;5.03;;
26756;SDS011;23848;49.798;10.228;2024-01-06T11:13:53;6.35;;;3.45;;
26756;SDS011;23848;49.798;10.228;2024-01-06T11:16:47;6.22;;;3.75;;
26756;SDS011;23848;49.798;10.228;2024-01-06T11:22:20;8.65;;;5.30;;
26756;SDS011;23848;49.798;10.228;2024-01-06T11:25:08;12.05;;;6.78;;
26756;SDS011;23848;49.798;10.228;2024-01-06T11:27:52;16.63;;;9.38;;
26756;SDS011;23848;49.798;10.228;2024-01-06T11:33:20;153.18;;;59.60;;
26756;SDS011;23848;49.798;10.228;2024-01-06T11:35:52;255.98;;;111.03;;
26756;SDS011;23848;49.798;10.228;2024-01-06T11:38:46;142.48;;;66.50;;
26756;SDS011;23848;49.798;10.228;2024-01-06T11:47:02;11.30;;;6.30;;
26756;SDS011;23848;49.798;10.228;2024-01-06T11:49:40;8.40;;;5.00;;
26756;SDS011;23848;49.798;10.228;2024-01-06T11:52:13;6.97;;;4.22;;
26756;SDS011;23848;49.798;10.228;2024-01-06T11:54:52;6.38;;;3.90;;
26756;SDS011;23848;49.798;10.228;2024-01-06T11:57:31;6.57;;;4.20;;
26756;SDS011;23848;49.798;10.228;2024-01-06T12:00:00;8.02;;;5.18;;
26756;SDS011;23848;49.798;10.228;2024-01-06T12:05:21;13.38;;;7.22;;
26756;SDS011;23848;49.798;10.228;2024-01-06T12:07:58;7.72;;;4.85;;
26756;SDS011;23848;49.798;10.228;2024-01-06T12:10:34;6.38;;;4.03;;
26756;SDS011;23848;49.798;10.228;2024-01-06T12:13:14;7.15;;;5.13;;
26756;SDS011;23848;49.798;10.228;2024-01-06T12:15:48;5.95;;;4.60;;
26756;SDS011;23848;49.798;10.228;2024-01-06T12:18:20;8.77;;;4.00;;
26756;SDS011;23848;49.798;10.228;2024-01-06T12:20:53;6.63;;;4.28;;
26756;SDS011;23848;49.798;10.228;2024-01-06T12:23:28;7.18;;;4.50;;
26756;SDS011;23848;49.798;10.228;2024-01-06T12:26:01;6.88;;;4.32;;
26756;SDS011;23848;49.798;10.228;2024-01-06T12:28:30;6.15;;;4.20;;
26756;SDS011;23848;49.798;10.228;2024-01-06T12:31:08;6.85;;;3.85;;
26756;SDS011;23848;49.798;10.228;2024-01-06T12:33:38;5.63;;;3.53;;
26756;SDS011;23848;49.798;10.228;2024-01-06T12:36:13;7.25;;;4.93;;
26756;SDS011;23848;49.798;10.228;2024-01-06T12:38:54;7.50;;;4.68;;
26756;SDS011;23848;49.798;10.228;2024-01-06T12:41:37;8.25;;;5.75;;
26756;SDS011;23848;49.798;10.228;2024-01-06T12:44:12;5.72;;;3.90;;
26756;SDS011;23848;49.798;10.228;2024-01-06T12:46:43;5.93;;;3.75;;
26756;SDS011;23848;49.798;10.228;2024-01-06T12:49:14;4.45;;;3.30;;
26756;SDS011;23848;49.798;10.228;2024-01-06T12:51:51;5.47;;;3.47;;
26756;SDS011;23848;49.798;10.228;2024-01-06T12:54:21;4.95;;;3.10;;
26756;SDS011;23848;49.798;10.228;2024-01-06T12:56:59;5.78;;;3.42;;
26756;SDS011;23848;49.798;10.228;2024-01-06T13:02:36;6.32;;;3.50;;
26756;SDS011;23848;49.798;10.228;2024-01-06T13:05:11;6.35;;;3.72;;
26756;SDS011;23848;49.798;10.228;2024-01-06T13:07:57;5.85;;;3.95;;
26756;SDS011;23848;49.798;10.228;2024-01-06T13:13:28;6.93;;;4.63;;
26756;SDS011;23848;49.798;10.228;2024-01-06T13:16:04;6.47;;;3.28;;
26756;SDS011;23848;49.798;10.228;2024-01-06T13:18:42;4.82;;;3.22;;
26756;SDS011;23848;49.798;10.228;2024-01-06T13:21:17;6.07;;;3.38;;
26756;SDS011;23848;49.798;10.228;2024-01-06T13:23:50;6.07;;;4.13;;
26756;SDS011;23848;49.798;10.228;2024-01-06T13:26:30;6.40;;;3.92;;
26756;SDS011;23848;49.798;10.228;2024-01-06T13:29:01;7.13;;;4.65;;
26756;SDS011;23848;49.798;10.228;2024-01-06T13:31:39;6.90;;;3.83;;
26756;SDS011;23848;49.798;10.228;2024-01-06T13:52:53;7.45;;;3.55;;
26756;SDS011;23848;49.798;10.228;2024-01-06T13:59:33;5.32;;;3.83;;
26756;SDS011;23848;49.798;10.228;2024-01-06T14:02:23;7.93;;;4.28;;
26756;SDS011;23848;49.798;10.228;2024-01-06T14:05:20;7.10;;;3.85;;
26756;SDS011;23848;49.798;10.228;2024-01-06T14:07:57;6.60;;;3.88;;
26756;SDS011;23848;49.798;10.228;2024-01-06T14:10:56;40.17;;;19.08;;
26756;SDS011;23848;49.798;10.228;2024-01-06T14:13:44;11.32;;;6.18;;
26756;SDS011;23848;49.798;10.228;2024-01-06T14:16:50;8.80;;;4.70;;
26756;SDS011;23848;49.798;10.228;2024-01-06T14:19:55;6.75;;;3.88;;
26756;SDS011;23848;49.798;10.228;2024-01-06T14:26:37;6.85;;;4.40;;
26756;SDS011;23848;49.798;10.228;2024-01-06T14:29:35;6.90;;;4.20;;
26756;SDS011;23848;49.798;10.228;2024-01-06T14:35:40;7.43;;;3.80;;
26756;SDS011;23848;49.798;10.228;2024-01-06T14:38:46;6.78;;;3.42;;
26756;SDS011;23848;49.798;10.228;2024-01-06T14:42:24;7.40;;;4.25;;
26756;SDS011;23848;49.798;10.228;2024-01-06T14:45:25;5.45;;;3.30;;
26756;SDS011;23848;49.798;10.228;2024-01-06T14:48:35;5.38;;;3.30;;
26756;SDS011;23848;49.798;10.228;2024-01-06T14:51:48;6.25;;;3.30;;
26756;SDS011;23848;49.798;10.228;2024-01-06T14:54:51;5.32;;;2.90;;
26756;SDS011;23848;49.798;10.228;2024-01-06T14:57:42;4.05;;;2.80;;
26756;SDS011;23848;49.798;10.228;2024-01-06T15:04:18;5.05;;;3.10;;
26756;SDS011;23848;49.798;10.228;2024-01-06T15:07:40;4.65;;;2.90;;
26756;SDS011;23848;49.798;10.228;2024-01-06T15:10:53;4.05;;;2.92;;
26756;SDS011;23848;49.798;10.228;2024-01-06T15:24:14;5.20;;;3.53;;
26756;SDS011;23848;49.798;10.228;2024-01-06T15:27:08;5.05;;;3.05;;
26756;SDS011;23848;49.798;10.228;2024-01-06T15:30:14;4.78;;;3.00;;
26756;SDS011;23848;49.798;10.228;2024-01-06T15:33:31;4.97;;;2.97;;
26756;SDS011;23848;49.798;10.228;2024-01-06T15:39:51;5.55;;;3.40;;
26756;SDS011;23848;49.798;10.228;2024-01-06T15:43:03;5.15;;;3.05;;
26756;SDS011;23848;49.798;10.228;2024-01-06T15:46:35;10.02;;;3.75;;
26756;SDS011;23848;49.798;10.228;2024-01-06T15:50:10;6.88;;;3.70;;
26756;SDS011;23848;49.798;10.228;2024-01-06T15:53:41;7.03;;;3.85;;
26756;SDS011;23848;49.798;10.228;2024-01-06T16:03:07;5.70;;;3.45;;
26756;SDS011;23848;49.798;10.228;2024-01-06T16:06:22;4.72;;;3.13;;
26756;SDS011;23848;49.798;10.228;2024-01-06T16:09:17;6.30;;;3.90;;
26756;SDS011;23848;49.798;10.228;2024-01-06T16:12:12;6.78;;;3.90;;
26756;SDS011;23848;49.798;10.228;2024-01-06T16:15:21;8.18;;;4.38;;
26756;SDS011;23848;49.798;10.228;2024-01-06T16:18:50;7.32;;;4.38;;
26756;SDS011;23848;49.798;10.228;2024-01-06T16:21:44;6.53;;;4.15;;
26756;SDS011;23848;49.798;10.228;2024-01-06T16:24:48;6.57;;;4.25;;
26756;SDS011;23848;49.798;10.228;2024-01-06T16:27:42;5.70;;;3.33;;
26756;SDS011;23848;49.798;10.228;2024-01-06T16:30:24;6.03;;;3.58;;
26756;SDS011;23848;49.798;10.228;2024-01-06T16:33:09;5.40;;;3.45;;
26756;SDS011;23848;49.798;10.228;2024-01-06T16:35:50;5.30;;;3.42;;
26756;SDS011;23848;49.798;10.228;2024-01-06T16:38:41;5.05;;;3.35;;
26756;SDS011;23848;49.798;10.228;2024-01-06T16:41:24;6.35;;;3.45;;
26756;SDS011;23848;49.798;10.228;2024-01-06T16:44:17;7.82;;;4.32;;
26756;SDS011;23848;49.798;10.228;2024-01-06T16:46:48;13.82;;;7.85;;
26756;SDS011;23848;49.798;10.228;2024-01-06T16:49:34;13.43;;;7.40;;
26756;SDS011;23848;49.798;10.228;2024-01-06T16:52:13;9.05;;;6.03;;
26756;SDS011;23848;49.798;10.228;2024-01-06T16:54:51;9.27;;;6.28;;
26756;SDS011;23848;49.798;10.228;2024-01-06T16:57:44;8.23;;;6.15;;
26756;SDS011;23848;49.798;10.228;2024-01-06T17:00:26;8.52;;;5.60;;
26756;SDS011;23848;49.798;10.228;2024-01-06T17:03:12;10.45;;;6.10;;
26756;SDS011;23848;49.798;10.228;2024-01-06T17:06:03;10.20;;;7.20;;
26756;SDS011;23848;49.798;10.228;2024-01-06T17:08:50;13.35;;;7.70;;
26756;SDS011;23848;49.798;10.228;2024-01-06T17:11:41;8.90;;;6.28;;
26756;SDS011;23848;49.798;10.228;2024-01-06T17:14:33;8.70;;;5.72;;
26756;SDS011;23848;49.798;10.228;2024-01-06T17:17:14;8.40;;;6.43;;
26756;SDS011;23848;49.798;10.228;2024-01-06T17:20:14;8.20;;;5.65;;
26756;SDS011;23848;49.798;10.228;2024-01-06T17:22:52;6.03;;;3.78;;
26756;SDS011;23848;49.798;10.228;2024-01-06T17:25:37;5.97;;;4.05;;
26756;SDS011;23848;49.798;10.228;2024-01-06T17:28:11;8.55;;;4.95;;
26756;SDS011;23848;49.798;10.228;2024-01-06T17:31:04;7.07;;;4.45;;
26756;SDS011;23848;49.798;10.228;2024-01-06T17:36:49;5.72;;;3.58;;
26756;SDS011;23848;49.798;10.228;2024-01-06T17:39:45;5.13;;;3.17;;
26756;SDS011;23848;49.798;10.228;2024-01-06T17:42:37;4.63;;;3.33;;
26756;SDS011;23848;49.798;10.228;2024-01-06T17:45:25;6.57;;;4.05;;
26756;SDS011;23848;49.798;10.228;2024-01-06T17:47:59;5.13;;;3.45;;
26756;SDS011;23848;49.798;10.228;2024-01-06T17:50:46;6.45;;;4.05;;
26756;SDS011;23848;49.798;10.228;2024-01-06T17:53:21;7.72;;;5.13;;
26756;SDS011;23848;49.798;10.228;2024-01-06T17:59:10;7.82;;;6.25;;
26756;SDS011;23848;49.798;10.228;2024-01-06T18:02:07;11.38;;;6.35;;
26756;SDS011;23848;49.798;10.228;2024-01-06T18:04:49;8.38;;;5.82;;
26756;SDS011;23848;49.798;10.228;2024-01-06T18:07:25;9.02;;;5.85;;
26756;SDS011;23848;49.798;10.228;2024-01-06T18:10:12;9.90;;;6.65;;
26756;SDS011;23848;49.798;10.228;2024-01-06T18:12:54;11.90;;;7.85;;
26756;SDS011;23848;49.798;10.228;2024-01-06T18:15:44;11.77;;;6.97;;
26756;SDS011;23848;49.798;10.228;2024-01-06T18:18:46;10.57;;;7.45;;
26756;SDS011;23848;49.798;10.228;2024-01-06T18:21:44;9.82;;;6.80;;
26756;SDS011;23848;49.798;10.228;2024-01-06T18:24:24;9.27;;;6.38;;
26756;SDS011;23848;49.798;10.228;2024-01-06T18:27:10;11.80;;;7.35;;
26756;SDS011;23848;49.798;10.228;2024-01-06T18:29:52;12.43;;;8.93;;
26756;SDS011;23848;49.798;10.228;2024-01-06T18:32:45;14.20;;;8.48;;
26756;SDS011;23848;49.798;10.228;2024-01-06T18:35:37;12.20;;;7.57;;
26756;SDS011;23848;49.798;10.228;2024-01-06T18:38:33;14.18;;;8.85;;
26756;SDS011;23848;49.798;10.228;2024-01-06T18:41:15;13.60;;;8.25;;
26756;SDS011;23848;49.798;10.228;2024-01-06T18:44:09;13.77;;;7.55;;
26756;SDS011;23848;49.798;10.228;2024-01-06T18:46:59;11.50;;;7.07;;
26756;SDS011;23848;49.798;10.228;2024-01-06T18:49:55;12.05;;;7.95;;
26756;SDS011;23848;49.798;10.228;2024-01-06T18:52:46;11.38;;;6.88;;
26756;SDS011;23848;49.798;10.228;2024-01-06T18:55:48;10.65;;;6.80;;
26756;SDS011;23848;49.798;10.228;2024-01-06T18:59:32;11.73;;;7.63;;
26756;SDS011;23848;49.798;10.228;2024-01-06T19:01:54;11.95;;;7.78;;
26756;SDS011;23848;49.798;10.228;2024-01-06T19:04:39;15.65;;;9.07;;
26756;SDS011;23848;49.798;10.228;2024-01-06T19:07:27;15.02;;;9.70;;
26756;SDS011;23848;49.798;10.228;2024-01-06T19:10:34;11.93;;;7.22;;
26756;SDS011;23848;49.798;10.228;2024-01-06T19:16:26;11.93;;;8.82;;
26756;SDS011;23848;49.798;10.228;2024-01-06T19:19:37;14.65;;;9.40;;
26756;SDS011;23848;49.798;10.228;2024-01-06T19:25:48;11.63;;;8.05;;
26756;SDS011;23848;49.798;10.228;2024-01-06T19:28:31;12.27;;;7.65;;
26756;SDS011;23848;49.798;10.228;2024-01-06T19:31:28;11.88;;;7.63;;
26756;SDS011;23848;49.798;10.228;2024-01-06T19:34:01;11.68;;;8.40;;
26756;SDS011;23848;49.798;10.228;2024-01-06T19:36:52;11.80;;;7.88;;
26756;SDS011;23848;49.798;10.228;2024-01-06T19:39:37;12.32;;;8.07;;
26756;SDS011;23848;49.798;10.228;2024-01-06T19:42:28;11.65;;;7.97;;
26756;SDS011;23848;49.798;10.228;2024-01-06T19:45:14;12.43;;;8.52;;
26756;SDS011;23848;49.798;10.228;2024-01-06T19:47:49;11.77;;;8.43;;
26756;SDS011;23848;49.798;10.228;2024-01-06T19:50:33;14.95;;;8.98;;
26756;SDS011;23848;49.798;10.228;2024-01-06T19:53:11;14.48;;;8.32;;
26756;SDS011;23848;49.798;10.228;2024-01-06T19:55:42;12.45;;;8.50;;
26756;SDS011;23848;49.798;10.228;2024-01-06T20:01:43;12.75;;;8.30;;
26756;SDS011;23848;49.798;10.228;2024-01-06T20:10:54;11.75;;;7.07;;
26756;SDS011;23848;49.798;10.228;2024-01-06T20:13:54;9.20;;;6.60;;
26756;SDS011;23848;49.798;10.228;2024-01-06T20:16:57;11.15;;;7.80;;
26756;SDS011;23848;49.798;10.228;2024-01-06T20:19:41;11.15;;;8.13;;
26756;SDS011;23848;49.798;10.228;2024-01-06T20:22:37;12.20;;;8.43;;
26756;SDS011;23848;49.798;10.228;2024-01-06T20:25:32;13.68;;;8.82;;
26756;SDS011;23848;49.798;10.228;2024-01-06T20:28:17;15.63;;;9.50;;
26756;SDS011;23848;49.798;10.228;2024-01-06T20:31:03;13.43;;;9.18;;
26756;SDS011;23848;49.798;10.228;2024-01-06T20:33:54;13.07;;;7.97;;
26756;SDS011;23848;49.798;10.228;2024-01-06T20:36:41;14.02;;;8.40;;
26756;SDS011;23848;49.798;10.228;2024-01-06T20:39:17;12.93;;;8.40;;
26756;SDS011;23848;49.798;10.228;2024-01-06T20:42:06;12.82;;;8.77;;
26756;SDS011;23848;49.798;10.228;2024-01-06T20:44:37;11.95;;;9.07;;
26756;SDS011;23848;49.798;10.228;2024-01-06T20:47:15;12.82;;;9.15;;
26756;SDS011;23848;49.798;10.228;2024-01-06T20:50:05;12.50;;;8.43;;
26756;SDS011;23848;49.798;10.228;2024-01-06T20:53:06;11.73;;;7.32;;
26756;SDS011;23848;49.798;10.228;2024-01-06T20:55:45;15.00;;;8.20;;
26756;SDS011;23848;49.798;10.228;2024-01-06T20:58:32;11.57;;;7.85;;
26756;SDS011;23848;49.798;10.228;2024-01-06T21:01:16;11.30;;;7.32;;
26756;SDS011;23848;49.798;10.228;2024-01-06T21:03:47;16.00;;;8.13;;
26756;SDS011;23848;49.798;10.228;2024-01-06T21:06:32;13.52;;;8.90;;
26756;SDS011;23848;49.798;10.228;2024-01-06T21:09:12;11.75;;;7.85;;
26756;SDS011;23848;49.798;10.228;2024-01-06T21:12:06;11.18;;;7.55;;
26756;SDS011;23848;49.798;10.228;2024-01-06T21:14:57;8.88;;;6.53;;
26756;SDS011;23848;49.798;10.228;2024-01-06T21:17:57;7.75;;;5.78;;
26756;SDS011;23848;49.798;10.228;2024-01-06T21:20:49;9.70;;;6.15;;
26756;SDS011;23848;49.798;10.228;2024-01-06T21:23:36;9.00;;;5.88;;
26756;SDS011;23848;49.798;10.228;2024-01-06T21:26:32;9.10;;;5.55;;
26756;SDS011;23848;49.798;10.228;2024-01-06T21:29:56;10.90;;;7.30;;